Urb Palmanova, Puerto Rico
Current Conditions -  °F | °C
As of 1:53 PM on Saturday 25 Oct 2014 (Local Time) from TJNR Reporting Station
Overcast Overcast  
Wind Chill: 91°   Ceiling: 3200
Heat Index: 103°   Visibility: 10mi
Dew Point: 76°   Wind: 14mph
Humidity: 61%   Direction: 190°S
Pressure: 29.9"   Gusts: 17mph
Location:  18.1494°N, 65.8294°W
Report Text: TJNR 251753Z AUTO 19012G15KT 10SM BKN032 OVC042 33/24 A2990 RMK AO2 SLP124 T03280244 10328 20289 58024 $
Loading
Personal Weather Stations






























Interactive Weather Map
Tropical Storm Tracking
New forecast layout! Learn more

10-Day Weather Forecast

Advertisements
Track Severe Weather on mobile